KVAD/VAD METAR and TAF weather

Enter ICAO airport designator
Station Type Date Time Source
KVAD METAR 2020/03/31 05:56 UTC NOAA

KVAD 310556Z AUTO 16003KT 10SM CLR 17/14 A2992 RMK AO2 SLP132 T01720141 10247 20172 57029 $


Station Type Date Time Source
KVAD Decoded METAR 2020/03/31 05:56 UTC NOAA

Moody Air Force Base, GA, United States (KVAD) 30-58N 083-12W 71M
Mar 31, 2020 - 01:56 AM EDT / 2020.03.31 0556 UTC
Wind: from the SSE (160 degrees) at 3 MPH (3 KT):0
Visibility: 10 mile(s):0
Sky conditions: clear
Temperature: 63.0 F (17.2 C)
Dew Point: 57.4 F (14.1 C)
Relative Humidity: 81%
Pressure (altimeter): 29.92 in. Hg (1013 hPa)
Pressure tendency: 0.09 inches (2.9 hPa) lower than three hours ago
ob: KVAD 310556Z AUTO 16003KT 10SM CLR 17/14 A2992 RMK AO2 SLP132 T01720141 10247 20172 57029
cycle: 6

Station Type Date Time Source
KVAD TAF 2020/03/31 04:55 UTC NOAA

TAF
AMD KVAD 310400Z 3104/0106 36006KT 9999 SCT250 QNH2991INS
BECMG 3109/3110 09006KT 9999 BKN030 BKN150 621505 QNH2988INS
BECMG 3113/3114 16010G15KT 9999 BKN030 BKN150 621505 QNH2985INS
BECMG 3117/3118 20010G25KT 8000 -SHRA BKN020 BKN150 621505 QNH2976INS
BECMG 3119/3120 23015G25KT 4800 -TSRA OVC020CB 621509 QNH2965INS
TEMPO 3122/3124 25020G35KT 0800 TSRA OVC015CB
BECMG 0100/0101 26010G20KT 9999 NSW BKN020 OVC120 621505 QNH2962INS TX27/3118Z TN17/3110Z LAST NO
AMDS AFT 3104 NEXT 3116

Example: see airport list